Airport ID:6TE6
Update Time (UTC):01/06/2020 16:00
Wind Speed (Knots):6
Wind Direction (Magnetic):170
Temperature (°C):25
Dew Point (°C):18
Humidity (%):65
Altimeter (inHg):30.19
Density Altitude (Feet):3400
Visibility:10+
Clouds (Hundreds of feet):FEW026 SCT065 BKN080
Present Weather:
METAR:METAR 6TE6 011555Z AUTO 16009KT 10SM FEW026 SCT065 BKN080 25/18 A3020 RMK A01

The data displayed is for advisory purposes only and is not to be used for flight planning or operations.